aviador You're here:

KTCL Decoded Metar

TUSCALOOSA in AL, USA
Report Time2017-08-18 09:53:00
UTC Time2017-08-18 10:48:48
Flight Rules vfr VFR
WindCalm
Visibility9999 m
Phenomena:N/A
Clouds:Few 040 Hf
CeilingNone
Temp24°C (ISA +9)
Dew Point24°C (100% RH)
QNH1016 hPa
Density Alt1,532 ft
Elevation161 ft
Report Wrong Elevation
Raw Report
METAR KTCL 180953Z AUTO 00000KT 10SM FEW040 24/24 A2999 RMK AO2 SLP154
T02390239=

Extra information for KTCL:More info

Metar Taf Metar & Taf Last 4 Metars F.Rules Stats Wind Profile Meteogram Temp Stats Airport Information Weather charts Add Link Nearby VenuesMetar ALERT Operation Metar Decoded Social comments

AIRNAV info for KTCL